Time;durP1;ratioP1;P1;durP2;ratioP2;P2;SDS_P1;SDS_P2;PMS_P1;PMS_P2;Temp;Humidity;BMP_temperature;BMP_pressure;BME280_temperature;BME280_humidity;BME280_pressure;Samples;Min_cycle;Max_cycle;Signal;HPM_P1;HPM_P2
2022/07/13 00:02:03;;;;;;;11.05;10.15;;;21.10;99.90;;;;;;5011479;28;20034;-74
2022/07/13 00:04:28;;;;;;;11.85;10.70;;;21.30;99.90;;;;;;5011471;28;20081;-75
2022/07/13 00:06:54;;;;;;;11.52;10.20;;;21.10;99.90;;;;;;4998482;28;20039;-73
2022/07/13 00:09:19;;;;;;;12.35;11.13;;;22.10;99.90;;;;;;5009270;28;20136;-72
2022/07/13 00:11:45;;;;;;;11.50;10.60;;;21.00;99.90;;;;;;4976174;28;1031336;-72
2022/07/13 00:14:10;;;;;;;12.60;11.50;;;21.00;99.90;;;;;;5012976;28;20038;-72
2022/07/13 00:16:36;;;;;;;12.02;10.85;;;21.10;99.90;;;;;;4994744;28;20030;-72
2022/07/13 00:19:01;;;;;;;12.38;11.18;;;21.20;99.90;;;;;;5012930;28;20034;-72
2022/07/13 00:21:27;;;;;;;12.00;10.95;;;22.50;99.90;;;;;;5012448;28;20104;-72
2022/07/13 00:23:52;;;;;;;11.90;10.80;;;20.90;99.90;;;;;;5012994;28;20026;-72
2022/07/13 00:26:18;;;;;;;12.35;11.25;;;21.00;99.90;;;;;;5012470;28;20030;-72
2022/07/13 00:28:43;;;;;;;12.02;10.75;;;20.80;99.90;;;;;;5012789;28;20046;-72
2022/07/13 00:31:09;;;;;;;12.27;11.27;;;20.90;99.90;;;;;;5012604;28;20034;-72
2022/07/13 00:33:34;;;;;;;13.55;11.65;;;18.30;99.90;;;;;;5012771;28;20042;-72
2022/07/13 00:36:00;;;;;;;11.65;10.45;;;20.90;99.90;;;;;;5005849;28;20026;-72
2022/07/13 00:38:25;;;;;;;11.98;10.88;;;20.90;99.90;;;;;;5007578;28;20064;-72
2022/07/13 00:40:51;;;;;;;11.43;10.32;;;21.60;99.90;;;;;;5012805;28;20550;-72
2022/07/13 00:43:17;;;;;;;12.52;11.30;;;20.90;99.90;;;;;;5012610;28;20391;-71
2022/07/13 00:45:43;;;;;;;12.80;11.73;;;20.90;99.90;;;;;;5012115;28;20026;-72
2022/07/13 00:48:10;;;;;;;12.05;10.95;;;20.90;99.90;;;;;;5012453;28;20103;-71
2022/07/13 00:50:35;;;;;;;11.82;10.85;;;22.90;99.90;;;;;;5012302;28;20104;-72
2022/07/13 00:53:01;;;;;;;12.98;11.77;;;20.80;99.90;;;;;;5012596;28;20033;-72
2022/07/13 00:55:28;;;;;;;12.50;11.32;;;22.00;99.90;;;;;;5011902;28;20471;-72
2022/07/13 00:57:54;;;;;;;11.90;10.88;;;20.80;99.90;;;;;;5012503;28;20026;-72
2022/07/13 01:00:19;;;;;;;11.75;10.52;;;20.70;99.90;;;;;;5011481;28;20026;-72
2022/07/13 01:02:46;;;;;;;11.38;10.20;;;21.60;99.90;;;;;;5012367;28;20529;-72
2022/07/13 01:05:14;;;;;;;12.10;11.00;;;20.80;99.90;;;;;;5009532;28;20029;-72
2022/07/13 01:07:40;;;;;;;12.32;11.23;;;20.70;99.90;;;;;;4999896;28;20180;-72
2022/07/13 01:10:08;;;;;;;11.98;10.98;;;20.80;99.90;;;;;;5012309;28;20026;-72
2022/07/13 01:12:36;;;;;;;12.50;11.40;;;20.80;99.90;;;;;;4987607;28;20074;-72
2022/07/13 01:15:02;;;;;;;11.77;10.77;;;20.80;99.90;;;;;;4992026;28;20062;-71
2022/07/13 01:17:29;;;;;;;11.68;10.73;;;20.90;99.90;;;;;;4991931;28;20037;-71
2022/07/13 01:19:56;;;;;;;13.27;12.02;;;20.90;99.90;;;;;;4992495;28;20030;-72
2022/07/13 01:22:25;;;;;;;12.02;10.82;;;21.00;99.90;;;;;;4991821;28;20022;-72
2022/07/13 01:24:52;;;;;;;11.00;10.00;;;20.80;99.90;;;;;;4992281;28;20117;-72
2022/07/13 01:27:18;;;;;;;11.88;10.80;;;20.90;99.90;;;;;;4991629;28;20089;-72
2022/07/13 01:29:43;;;;;;;11.82;10.82;;;20.80;99.90;;;;;;4990160;28;20133;-72
2022/07/13 01:32:09;;;;;;;11.77;10.57;;;21.00;99.90;;;;;;4992056;28;20110;-72
2022/07/13 01:34:34;;;;;;;11.57;9.48;;;20.70;99.90;;;;;;4991972;28;20035;-72
2022/07/13 01:37:01;;;;;;;10.63;9.00;;;20.70;99.90;;;;;;4991278;28;20129;-72
2022/07/13 01:39:27;;;;;;;11.55;10.35;;;20.60;99.90;;;;;;4991500;28;20034;-72
2022/07/13 01:41:52;;;;;;;10.32;9.32;;;20.70;99.90;;;;;;4991692;28;20030;-71
2022/07/13 01:44:18;;;;;;;10.32;9.27;;;20.70;99.90;;;;;;4990877;28;20062;-71
2022/07/13 01:46:44;;;;;;;10.05;9.23;;;20.70;99.90;;;;;;4991896;28;20050;-71
2022/07/13 01:49:10;;;;;;;10.48;9.40;;;20.70;99.90;;;;;;4990682;28;20035;-71
2022/07/13 01:51:36;;;;;;;9.85;8.85;;;21.10;99.90;;;;;;4991524;28;20117;-71
2022/07/13 01:54:01;;;;;;;9.52;8.57;;;20.80;99.90;;;;;;4991611;28;20495;-71
2022/07/13 01:56:27;;;;;;;10.32;8.50;;;20.80;99.90;;;;;;4991583;28;20080;-71
2022/07/13 01:58:52;;;;;;;9.85;9.05;;;20.80;99.90;;;;;;4990899;28;20034;-71
2022/07/13 02:01:18;;;;;;;9.90;9.00;;;20.90;99.90;;;;;;4991426;28;20105;-71
2022/07/13 02:03:44;;;;;;;9.13;8.38;;;21.60;99.90;;;;;;4975409;28;20037;-71
2022/07/13 02:06:10;;;;;;;9.60;8.77;;;21.00;99.90;;;;;;4991152;28;20030;-71
2022/07/13 02:08:35;;;;;;;9.10;8.20;;;21.00;99.90;;;;;;4991029;28;20053;-72
2022/07/13 02:11:01;;;;;;;9.55;8.75;;;21.10;99.90;;;;;;5008430;28;20455;-71
2022/07/13 02:13:27;;;;;;;8.48;7.78;;;21.00;99.90;;;;;;5006960;28;20056;-71
2022/07/13 02:15:54;;;;;;;10.52;9.55;;;21.00;99.90;;;;;;4989249;28;20027;-71
2022/07/13 02:18:20;;;;;;;10.05;9.05;;;21.50;99.90;;;;;;4988840;28;20022;-71
2022/07/13 02:20:46;;;;;;;9.73;8.90;;;20.90;99.90;;;;;;5001156;28;20041;-71
2022/07/13 02:23:11;;;;;;;10.27;9.27;;;21.00;99.90;;;;;;5000217;28;20100;-71
2022/07/13 02:25:37;;;;;;;8.73;7.95;;;20.90;99.90;;;;;;5010393;28;20036;-71
2022/07/13 02:28:04;;;;;;;9.27;8.10;;;21.90;99.90;;;;;;5010061;28;20171;-71
2022/07/13 02:30:30;;;;;;;9.75;8.95;;;20.90;99.90;;;;;;5010276;28;20072;-71
2022/07/13 02:32:56;;;;;;;9.90;9.00;;;21.00;99.90;;;;;;5005099;28;20061;-71
2022/07/13 02:35:21;;;;;;;9.75;8.90;;;20.90;99.90;;;;;;4996217;28;20019;-71
2022/07/13 02:37:46;;;;;;;11.32;9.55;;;20.90;99.90;;;;;;5008141;28;20084;-71
2022/07/13 02:40:12;;;;;;;8.32;7.63;;;20.80;99.90;;;;;;5010289;28;20080;-72
2022/07/13 02:42:38;;;;;;;9.05;8.32;;;20.80;99.90;;;;;;5009564;28;20379;-72
2022/07/13 02:45:05;;;;;;;9.40;8.60;;;20.80;99.90;;;;;;5003318;28;20065;-71
2022/07/13 02:47:31;;;;;;;8.98;8.27;;;20.80;99.90;;;;;;5003762;28;20034;-71
2022/07/13 02:49:56;;;;;;;9.38;8.45;;;20.80;99.90;;;;;;5009667;28;20141;-71
2022/07/13 02:52:22;;;;;;;8.20;7.50;;;20.70;99.90;;;;;;5009897;28;20029;-71
2022/07/13 02:54:47;;;;;;;7.57;6.88;;;20.80;99.90;;;;;;4998532;28;20045;-71
2022/07/13 02:57:13;;;;;;;8.90;8.10;;;20.70;99.90;;;;;;4998012;28;20041;-71
2022/07/13 02:59:38;;;;;;;9.02;8.32;;;22.00;99.90;;;;;;5009935;28;20038;-71
2022/07/13 03:02:05;;;;;;;8.05;7.35;;;20.80;99.90;;;;;;4992674;28;20022;-71
2022/07/13 03:04:32;;;;;;;9.02;8.23;;;20.80;99.90;;;;;;5009817;28;20026;-71
2022/07/13 03:06:58;;;;;;;7.95;7.15;;;20.80;99.90;;;;;;5001953;28;20022;-71
2022/07/13 03:09:24;;;;;;;7.97;7.20;;;20.90;99.90;;;;;;5008802;28;20045;-71
2022/07/13 03:11:50;;;;;;;8.63;7.82;;;20.70;99.90;;;;;;5008994;28;20029;-72
2022/07/13 03:14:16;;;;;;;7.85;7.15;;;20.80;99.90;;;;;;5009321;28;20022;-71
2022/07/13 03:16:42;;;;;;;8.40;7.32;;;20.70;99.90;;;;;;5009267;28;20017;-71
2022/07/13 03:19:08;;;;;;;7.03;6.43;;;20.70;99.90;;;;;;4976104;28;20032;-71
2022/07/13 03:21:34;;;;;;;7.93;7.13;;;20.70;99.90;;;;;;4989607;28;20029;-71
2022/07/13 03:23:59;;;;;;;8.20;7.40;;;20.70;99.90;;;;;;5006728;28;20053;-71
2022/07/13 03:26:25;;;;;;;8.27;7.53;;;20.70;99.90;;;;;;5008907;28;20018;-71
2022/07/13 03:28:51;;;;;;;7.75;7.15;;;20.80;99.90;;;;;;5009836;28;20038;-71
2022/07/13 03:31:18;;;;;;;8.82;8.07;;;20.70;99.90;;;;;;5009393;28;20029;-71
2022/07/13 03:33:44;;;;;;;7.85;7.15;;;20.70;99.90;;;;;;4992133;28;20092;-71
2022/07/13 03:36:09;;;;;;;7.55;6.95;;;21.00;99.90;;;;;;5002070;28;20026;-71
2022/07/13 03:38:35;;;;;;;7.88;7.07;;;20.60;99.90;;;;;;5000269;28;20061;-71
2022/07/13 03:41:01;;;;;;;8.00;7.20;;;21.20;99.90;;;;;;5006624;28;20383;-71
2022/07/13 03:43:27;;;;;;;9.93;7.47;;;20.70;99.90;;;;;;5009335;28;20463;-71
2022/07/13 03:45:52;;;;;;;7.32;6.55;;;20.80;99.90;;;;;;5009799;28;20029;-71
2022/07/13 03:48:18;;;;;;;8.02;6.68;;;20.50;99.90;;;;;;5009262;28;20063;-71
2022/07/13 03:50:45;;;;;;;7.30;6.63;;;20.80;99.90;;;;;;5009755;28;20026;-71
2022/07/13 03:53:11;;;;;;;7.88;5.90;;;20.70;99.90;;;;;;5009619;28;20069;-71
2022/07/13 03:55:38;;;;;;;7.28;6.30;;;20.70;99.90;;;;;;5008991;28;20109;-71
2022/07/13 03:58:04;;;;;;;6.22;5.72;;;20.80;99.90;;;;;;5009717;28;20479;-71
2022/07/13 04:00:30;;;;;;;6.32;5.82;;;20.70;99.90;;;;;;5009283;28;20037;-71
2022/07/13 04:02:56;;;;;;;6.53;6.00;;;20.80;99.90;;;;;;5009664;28;20033;-71
2022/07/13 04:05:21;;;;;;;6.43;5.85;;;20.90;99.90;;;;;;5001673;28;20026;-71
2022/07/13 04:07:47;;;;;;;6.60;5.80;;;20.80;99.90;;;;;;5004578;28;20084;-71
2022/07/13 04:10:12;;;;;;;6.68;6.10;;;18.80;99.90;;;;;;5008892;28;20116;-71
2022/07/13 04:12:42;;;;;;;6.47;5.88;;;20.80;99.90;;;;;;5011398;28;20042;-71
2022/07/13 04:15:08;;;;;;;7.05;6.45;;;20.90;99.90;;;;;;5013152;28;20014;-71
2022/07/13 04:17:33;;;;;;;6.68;6.07;;;20.90;99.90;;;;;;5012769;28;20390;-71
2022/07/13 04:19:59;;;;;;;6.75;6.15;;;20.90;99.90;;;;;;5012836;28;20068;-71
2022/07/13 04:22:24;;;;;;;6.38;5.68;;;22.10;99.90;;;;;;5012410;28;20030;-71
2022/07/13 04:24:50;;;;;;;6.47;5.95;;;20.80;99.90;;;;;;5012495;28;20113;-71
2022/07/13 04:27:15;;;;;;;6.30;5.80;;;20.80;99.90;;;;;;5012893;28;20540;-71
2022/07/13 04:29:41;;;;;;;5.88;5.38;;;20.80;99.90;;;;;;5013904;28;20045;-71
2022/07/13 04:32:06;;;;;;;6.57;6.05;;;20.90;99.90;;;;;;5012850;28;20022;-71
2022/07/13 04:34:32;;;;;;;6.88;6.18;;;20.90;99.90;;;;;;5009114;28;20101;-71
2022/07/13 04:36:58;;;;;;;7.18;6.45;;;20.80;99.90;;;;;;5005693;28;20034;-71
2022/07/13 04:39:23;;;;;;;5.32;4.93;;;20.80;99.90;;;;;;5012761;28;20033;-71
2022/07/13 04:41:49;;;;;;;9.15;5.88;;;20.80;99.90;;;;;;5013871;28;20037;-71
2022/07/13 04:44:14;;;;;;;6.07;5.57;;;20.70;99.90;;;;;;5012267;28;20072;-71
2022/07/13 04:46:40;;;;;;;6.65;6.07;;;20.90;99.90;;;;;;5012575;28;20033;-71
2022/07/13 04:49:05;;;;;;;7.07;6.45;;;20.90;99.90;;;;;;5012487;28;20038;-71
2022/07/13 04:51:31;;;;;;;7.88;6.03;;;20.90;99.90;;;;;;5012134;28;20072;-71
2022/07/13 04:53:57;;;;;;;5.68;5.03;;;21.10;99.90;;;;;;4978751;28;20464;-70
2022/07/13 04:56:22;;;;;;;6.60;5.97;;;21.00;99.90;;;;;;4991361;28;20019;-70
2022/07/13 04:58:48;;;;;;;7.70;5.72;;;21.90;99.90;;;;;;4992464;28;20080;-70
2022/07/13 05:01:14;;;;;;;5.93;5.43;;;21.20;99.90;;;;;;4992137;28;20101;-71
2022/07/13 05:03:39;;;;;;;6.45;5.82;;;21.20;99.90;;;;;;4998428;28;20548;-71
2022/07/13 05:06:05;;;;;;;9.07;6.80;;;21.40;99.90;;;;;;4991883;28;20038;-71
2022/07/13 05:08:30;;;;;;;6.75;6.00;;;21.50;99.90;;;;;;5000734;28;20069;-71
2022/07/13 05:10:56;;;;;;;7.88;6.95;;;21.60;99.90;;;;;;4991834;28;20415;-71
2022/07/13 05:13:21;;;;;;;6.65;6.03;;;21.60;99.90;;;;;;4997412;28;20507;-71
2022/07/13 05:15:47;;;;;;;7.22;6.53;;;21.60;99.90;;;;;;5002847;28;20080;-71
2022/07/13 05:18:13;;;;;;;6.90;5.68;;;21.50;99.90;;;;;;4991503;28;20058;-71
2022/07/13 05:20:38;;;;;;;6.95;6.30;;;21.60;99.90;;;;;;5008408;28;20057;-71
2022/07/13 05:23:04;;;;;;;7.15;6.53;;;21.60;99.90;;;;;;5008596;28;20037;-71
2022/07/13 05:25:29;;;;;;;7.22;6.53;;;21.80;99.90;;;;;;5011024;28;20066;-71
2022/07/13 05:27:55;;;;;;;7.75;7.03;;;21.70;99.90;;;;;;5011787;28;20038;-71
2022/07/13 05:30:21;;;;;;;8.05;7.35;;;21.80;99.90;;;;;;5011125;28;20036;-71
2022/07/13 05:32:47;;;;;;;9.50;7.65;;;21.90;99.90;;;;;;5011743;28;20030;-71
2022/07/13 05:35:13;;;;;;;8.38;7.57;;;21.90;99.90;;;;;;5000918;28;20034;-71
2022/07/13 05:37:38;;;;;;;8.13;7.18;;;21.90;99.90;;;;;;5009575;28;20079;-71
2022/07/13 05:40:05;;;;;;;9.90;8.70;;;22.00;99.90;;;;;;5011517;28;20034;-71
2022/07/13 05:42:30;;;;;;;9.93;8.35;;;21.90;99.90;;;;;;5010922;28;20034;-72
2022/07/13 05:44:56;;;;;;;8.48;7.68;;;22.10;99.90;;;;;;5011625;28;20404;-71
2022/07/13 05:47:22;;;;;;;8.82;8.02;;;22.20;99.90;;;;;;5010833;28;20038;-71
2022/07/13 05:49:47;;;;;;;9.18;8.27;;;22.20;99.90;;;;;;5009497;28;20081;-72
2022/07/13 05:52:13;;;;;;;11.40;9.60;;;22.30;99.90;;;;;;4991071;28;20022;-71
2022/07/13 05:54:38;;;;;;;11.60;10.60;;;23.40;99.90;;;;;;4991670;28;20550;-72
2022/07/13 05:57:04;;;;;;;11.25;10.23;;;22.30;99.90;;;;;;4991619;28;20022;-72
2022/07/13 05:59:30;;;;;;;9.88;8.88;;;22.30;99.90;;;;;;4991165;28;20113;-71
2022/07/13 06:01:55;;;;;;;9.75;8.82;;;22.40;99.90;;;;;;4990668;28;20395;-71
2022/07/13 06:04:21;;;;;;;10.75;9.75;;;22.60;99.90;;;;;;4990954;28;20074;-72
2022/07/13 06:06:47;;;;;;;10.52;9.43;;;22.50;99.90;;;;;;4990925;28;20088;-71
2022/07/13 06:09:13;;;;;;;12.52;9.27;;;23.70;99.90;;;;;;4991360;28;20037;-71
2022/07/13 06:11:39;;;;;;;12.05;10.85;;;22.60;99.90;;;;;;4991297;28;20446;-71
2022/07/13 06:14:05;;;;;;;10.60;9.45;;;22.60;99.90;;;;;;4991266;28;20084;-71
2022/07/13 06:16:31;;;;;;;11.57;10.43;;;24.10;99.90;;;;;;4990641;28;20602;-71
2022/07/13 06:18:56;;;;;;;10.48;9.48;;;22.60;99.90;;;;;;4990894;28;20105;-71
2022/07/13 06:21:22;;;;;;;12.20;9.77;;;22.80;99.90;;;;;;4990470;28;20018;-71
2022/07/13 06:23:47;;;;;;;11.18;10.00;;;22.80;99.90;;;;;;5007583;28;20061;-71
2022/07/13 06:26:13;;;;;;;10.40;9.30;;;22.90;99.90;;;;;;5010601;28;20108;-71
2022/07/13 06:28:38;;;;;;;15.38;9.35;;;22.90;99.90;;;;;;5006277;28;20463;-71
2022/07/13 06:31:06;;;;;;;10.27;9.38;;;23.00;99.90;;;;;;4991099;28;20023;-71
2022/07/13 06:33:31;;;;;;;12.63;10.70;;;23.70;99.90;;;;;;4990064;28;20117;-72
2022/07/13 06:35:57;;;;;;;13.25;10.30;;;23.10;99.90;;;;;;4990043;28;20054;-71
2022/07/13 06:38:22;;;;;;;8.95;8.05;;;23.00;99.90;;;;;;4990414;28;20487;-71
2022/07/13 06:40:49;;;;;;;10.40;9.40;;;23.00;99.70;;;;;;4990651;28;20057;-71
2022/07/13 06:43:15;;;;;;;10.80;9.70;;;23.40;99.40;;;;;;4990509;28;20030;-71
2022/07/13 06:45:41;;;;;;;9.80;8.70;;;23.50;99.10;;;;;;4990992;28;20026;-71
2022/07/13 06:48:07;;;;;;;9.65;8.77;;;23.60;98.70;;;;;;5002071;28;20038;-72
2022/07/13 06:50:32;;;;;;;9.70;8.80;;;23.60;98.50;;;;;;4990210;28;20026;-74
2022/07/13 06:52:58;;;;;;;9.93;9.02;;;23.70;98.30;;;;;;4990551;28;20029;-72
2022/07/13 06:55:23;;;;;;;9.18;8.27;;;24.30;98.40;;;;;;4999458;28;20024;-72
2022/07/13 06:57:49;;;;;;;12.05;9.98;;;23.90;98.00;;;;;;4990987;28;20076;-72
2022/07/13 07:00:15;;;;;;;10.13;9.15;;;23.90;97.90;;;;;;5001059;28;20081;-75
2022/07/13 07:02:40;;;;;;;10.75;8.52;;;25.40;98.20;;;;;;4990096;28;20034;-73
2022/07/13 07:05:09;;;;;;;9.27;8.35;;;24.10;97.80;;;;;;4973933;28;20384;-72
2022/07/13 07:07:35;;;;;;;10.73;9.63;;;24.10;97.70;;;;;;4995876;28;20105;-73
2022/07/13 07:10:01;;;;;;;10.82;9.82;;;24.10;97.60;;;;;;4989191;28;20472;-72
2022/07/13 07:12:27;;;;;;;9.30;8.40;;;24.00;97.40;;;;;;4989559;28;20046;-72
2022/07/13 07:14:52;;;;;;;9.60;8.70;;;24.00;97.30;;;;;;4990032;28;20080;-72
2022/07/13 07:17:18;;;;;;;10.00;8.98;;;24.10;97.20;;;;;;4989573;28;20029;-72
2022/07/13 07:19:47;;;;;;;10.55;8.43;;;24.20;96.90;;;;;;4990232;28;20026;-72
2022/07/13 07:22:13;;;;;;;9.25;8.35;;;24.30;96.00;;;;;;4980022;28;20083;-73
2022/07/13 07:24:42;;;;;;;8.10;7.32;;;24.40;96.70;;;;;;5010183;28;20034;-73
2022/07/13 07:27:10;;;;;;;9.65;8.23;;;24.50;95.80;;;;;;5010037;28;20033;-74
2022/07/13 07:29:36;;;;;;;11.35;8.05;;;24.60;96.30;;;;;;5009095;28;20484;-75
2022/07/13 07:32:02;;;;;;;9.32;8.27;;;24.70;96.10;;;;;;5004150;28;20014;-77
2022/07/13 07:34:28;;;;;;;7.15;6.45;;;24.90;96.00;;;;;;5001648;28;20534;-76
2022/07/13 07:36:54;;;;;;;7.63;6.82;;;26.00;96.10;;;;;;4994747;28;20140;-75
2022/07/13 07:39:20;;;;;;;8.18;7.38;;;25.00;95.30;;;;;;5007434;28;20097;-75
2022/07/13 07:41:47;;;;;;;7.75;6.47;;;25.40;95.00;;;;;;5005832;28;20109;-74
2022/07/13 07:44:12;;;;;;;7.57;6.80;;;25.60;94.60;;;;;;5008484;28;20049;-75
2022/07/13 07:46:38;;;;;;;6.82;6.22;;;25.60;94.50;;;;;;4999873;28;20507;-75
2022/07/13 07:49:03;;;;;;;8.82;6.40;;;25.70;94.30;;;;;;4994275;28;20436;-75
2022/07/13 07:51:30;;;;;;;9.25;6.05;;;25.70;94.00;;;;;;5007508;28;20508;-75
2022/07/13 07:53:56;;;;;;;8.82;7.00;;;25.50;93.70;;;;;;4990734;28;20395;-76
2022/07/13 07:56:23;;;;;;;8.48;5.95;;;25.50;93.70;;;;;;4991425;28;20010;-74
2022/07/13 07:58:48;;;;;;;7.03;5.50;;;25.60;93.80;;;;;;4991804;28;20221;-76
2022/07/13 08:01:14;;;;;;;5.85;5.32;;;25.60;93.70;;;;;;4990768;28;20019;-75
2022/07/13 08:03:40;;;;;;;6.13;5.53;;;25.60;93.50;;;;;;4992417;28;20089;-75
2022/07/13 08:06:05;;;;;;;6.10;5.50;;;25.70;93.50;;;;;;4992918;28;20054;-76
2022/07/13 08:08:31;;;;;;;7.22;5.88;;;25.70;93.30;;;;;;4993548;28;20046;-75
2022/07/13 08:10:56;;;;;;;7.65;5.78;;;25.90;93.40;;;;;;4992589;28;20026;-74
2022/07/13 08:13:22;;;;;;;6.53;5.93;;;25.70;93.30;;;;;;4990829;28;20054;-74
2022/07/13 08:15:48;;;;;;;6.18;5.57;;;26.20;93.70;;;;;;4991829;28;20030;-76
2022/07/13 08:18:13;;;;;;;6.15;4.30;;;25.30;93.60;;;;;;4991744;28;20495;-76
2022/07/13 08:20:39;;;;;;;8.93;6.32;;;25.30;93.90;;;;;;4991984;28;20034;-75
2022/07/13 08:23:51;;;;;;;7.45;5.32;;;25.40;94.20;;;;;;5002899;28;20461;-76
2022/07/13 08:25:50;;;;;;;7.88;5.72;;;25.10;94.10;;;;;;5011582;28;20030;-76
2022/07/13 08:28:15;;;;;;;8.32;5.75;;;25.30;94.40;;;;;;5012649;28;20120;-74
2022/07/13 08:30:41;;;;;;;6.75;6.15;;;25.20;94.40;;;;;;5011968;28;20029;-74
2022/07/13 08:33:07;;;;;;;6.60;6.00;;;25.80;94.50;;;;;;5007400;28;20510;-74
2022/07/13 08:38:58;;;;;;;7.45;5.43;;;25.40;93.50;;;;;;5009501;28;20118;-74
2022/07/13 08:41:05;;;;;;;7.53;5.90;;;25.40;93.40;;;;;;4988387;28;20049;-74
2022/07/13 08:43:33;;;;;;;7.53;5.82;;;25.50;94.00;;;;;;4992611;28;20035;-74
2022/07/13 08:46:02;;;;;;;7.35;5.38;;;26.00;94.20;;;;;;4992450;28;20026;-74
2022/07/13 08:48:31;;;;;;;6.53;5.75;;;25.50;94.10;;;;;;4992488;28;20035;-74
2022/07/13 08:50:57;;;;;;;6.68;6.00;;;25.50;94.00;;;;;;4998358;28;20022;-74
2022/07/13 08:53:24;;;;;;;7.15;5.88;;;25.50;93.90;;;;;;4992187;28;20384;-74
2022/07/13 08:55:50;;;;;;;6.95;6.28;;;25.60;93.70;;;;;;4992659;28;20491;-74
2022/07/13 08:58:16;;;;;;;6.45;4.90;;;25.50;93.50;;;;;;4992312;28;20030;-74
2022/07/13 09:00:42;;;;;;;8.77;6.00;;;25.50;93.60;;;;;;4991667;28;20528;-74
2022/07/13 09:03:09;;;;;;;5.63;4.95;;;25.60;93.60;;;;;;5003773;28;20057;-74
2022/07/13 09:05:35;;;;;;;7.43;5.93;;;25.70;93.60;;;;;;4992234;28;20472;-74
2022/07/13 09:08:01;;;;;;;7.40;5.75;;;25.50;93.40;;;;;;4997218;28;20040;-74
2022/07/13 09:10:27;;;;;;;6.50;5.63;;;25.70;93.40;;;;;;5003389;28;20022;-74
2022/07/13 09:12:53;;;;;;;8.40;5.65;;;26.20;93.30;;;;;;4978326;28;20507;-74
2022/07/13 09:15:18;;;;;;;6.82;5.10;;;25.90;93.20;;;;;;4992658;28;20022;-74
2022/07/13 09:17:44;;;;;;;7.22;5.63;;;25.80;93.00;;;;;;4993805;28;20427;-74
2022/07/13 09:20:12;;;;;;;6.82;5.43;;;25.80;93.00;;;;;;4998943;28;20101;-74
2022/07/13 09:22:57;;;;;;;5.93;5.28;;;25.90;93.30;;;;;;4981146;28;20456;-74
2022/07/13 09:25:34;;;;;;;5.82;5.15;;;26.00;93.40;;;;;;4991651;28;20109;-74
2022/07/13 09:28:10;;;;;;;6.63;5.85;;;26.00;93.30;;;;;;4978620;28;20030;-74
2022/07/13 09:30:42;;;;;;;5.85;5.28;;;25.80;93.00;;;;;;4998072;28;20449;-74
2022/07/13 09:33:07;;;;;;;6.10;4.53;;;25.90;93.30;;;;;;4991848;28;20034;-74
2022/07/13 09:35:42;;;;;;;7.43;6.35;;;25.90;93.10;;;;;;4996390;28;20384;-77
2022/07/13 09:38:08;;;;;;;5.82;5.22;;;25.90;92.50;;;;;;5001387;28;20030;-77
2022/07/13 09:40:33;;;;;;;8.90;6.90;;;26.00;92.90;;;;;;4996954;28;20445;-76
2022/07/13 09:48:27;;;;;;;8.18;6.35;;;26.00;92.00;;;;;;4992778;28;20140;-78
2022/07/13 09:50:57;;;;;;;7.22;5.28;;;27.20;93.10;;;;;;4991672;28;20472;-76
2022/07/13 09:53:23;;;;;;;8.10;6.05;;;25.90;92.60;;;;;;4991469;28;20029;-75
2022/07/13 09:55:51;;;;;;;7.70;5.10;;;26.20;92.40;;;;;;5003434;28;20103;-75
2022/07/13 09:58:21;;;;;;;5.50;4.40;;;26.20;92.60;;;;;;4991952;28;20023;-76
2022/07/13 10:00:47;;;;;;;6.18;5.20;;;26.60;92.50;;;;;;4996913;28;20065;-75
2022/07/13 10:03:12;;;;;;;5.32;4.78;;;26.60;92.00;;;;;;4989619;28;20030;-76
2022/07/13 10:05:38;;;;;;;5.50;5.00;;;26.70;91.70;;;;;;4995124;28;20472;-77
2022/07/13 10:08:04;;;;;;;5.45;4.95;;;26.60;91.50;;;;;;4993116;28;20030;-76
2022/07/13 10:10:30;;;;;;;5.35;4.82;;;26.70;91.40;;;;;;4990291;28;20407;-76
2022/07/13 10:13:05;;;;;;;5.35;4.90;;;26.60;91.50;;;;;;4990201;28;20050;-76
2022/07/13 10:15:30;;;;;;;6.03;3.83;;;26.80;91.40;;;;;;4991715;28;20022;-77
2022/07/13 10:17:58;;;;;;;4.60;4.18;;;26.70;91.20;;;;;;5007986;28;20021;-76
2022/07/13 10:20:25;;;;;;;3.97;3.28;;;26.80;90.90;;;;;;5008672;28;20021;-76
2022/07/13 10:22:51;;;;;;;4.40;4.00;;;26.70;90.90;;;;;;5009085;28;20096;-76
2022/07/13 10:25:17;;;;;;;5.53;3.80;;;27.80;91.10;;;;;;5001392;28;20050;-76
2022/07/13 10:27:43;;;;;;;4.70;2.90;;;27.10;90.80;;;;;;5002520;28;20030;-76
2022/07/13 10:30:18;;;;;;;5.72;3.15;;;27.20;90.90;;;;;;5009282;28;20030;-75
2022/07/13 10:32:45;;;;;;;4.05;3.65;;;27.00;90.50;;;;;;4989889;28;20041;-74
2022/07/13 10:35:17;;;;;;;4.88;3.10;;;27.20;90.10;;;;;;4999689;28;20095;-75
2022/07/13 10:38:00;;;;;;;7.57;3.80;;;27.30;88.70;;;;;;5001250;28;20026;-74
2022/07/13 10:40:30;;;;;;;4.35;2.53;;;27.40;89.00;;;;;;4990085;28;20092;-74
2022/07/13 10:43:03;;;;;;;3.88;3.42;;;27.30;89.70;;;;;;4990766;28;20105;-75
2022/07/13 10:45:52;;;;;;;5.50;3.22;;;27.30;87.80;;;;;;4990511;28;20117;-74
2022/07/13 10:48:24;;;;;;;4.65;2.90;;;27.40;88.10;;;;;;5002478;28;20038;-73
2022/07/13 10:50:58;;;;;;;3.35;3.05;;;27.60;89.60;;;;;;4989891;28;20026;-74
2022/07/13 10:53:50;;;;;;;6.32;2.58;;;27.80;89.30;;;;;;4993348;28;20049;-74
2022/07/13 10:56:20;;;;;;;5.18;3.10;;;28.00;87.20;;;;;;4988154;28;20352;-74
2022/07/13 10:58:47;;;;;;;4.10;3.22;;;28.10;88.20;;;;;;4994309;28;20029;-74
2022/07/13 11:01:37;;;;;;;3.60;2.90;;;28.30;87.40;;;;;;4989590;28;20026;-74
2022/07/13 11:04:05;;;;;;;5.00;3.92;;;28.50;85.10;;;;;;5004418;28;20026;-74
2022/07/13 11:06:30;;;;;;;5.88;4.68;;;28.40;84.90;;;;;;5006956;28;20037;-74
2022/07/13 11:09:09;;;;;;;5.85;3.75;;;28.20;84.30;;;;;;5007956;28;20045;-74
2022/07/13 11:11:44;;;;;;;5.03;3.08;;;28.40;85.70;;;;;;4980161;28;20109;-73
2022/07/13 11:14:41;;;;;;;7.20;3.20;;;28.50;85.00;;;;;;4989795;28;20042;-73
2022/07/13 11:17:21;;;;;;;5.75;2.80;;;28.70;82.90;;;;;;4991543;28;20108;-74
2022/07/13 11:19:56;;;;;;;3.97;2.28;;;28.70;83.00;;;;;;4994486;28;20030;-73
2022/07/13 11:22:24;;;;;;;3.53;2.80;;;28.70;80.50;;;;;;4999001;28;20018;-73
2022/07/13 11:25:15;;;;;;;4.78;2.67;;;28.70;81.30;;;;;;5007419;28;20037;-73
2022/07/13 11:28:05;;;;;;;2.80;2.22;;;28.70;79.70;;;;;;4979926;28;20515;-74
2022/07/13 11:30:34;;;;;;;5.30;2.35;;;28.60;79.90;;;;;;4991967;28;20062;-73
2022/07/13 11:33:00;;;;;;;3.65;2.05;;;28.60;81.40;;;;;;5008607;28;20036;-73
2022/07/13 11:35:26;;;;;;;3.50;1.98;;;28.70;81.00;;;;;;5006367;28;20026;-73
2022/07/13 11:37:52;;;;;;;4.05;2.05;;;28.80;79.10;;;;;;5008108;28;20022;-73
2022/07/13 11:40:32;;;;;;;4.30;2.72;;;28.80;79.00;;;;;;5005936;28;20049;-73
2022/07/13 11:43:00;;;;;;;4.72;3.22;;;28.80;80.20;;;;;;4986024;28;20014;-73
2022/07/13 11:45:30;;;;;;;5.78;3.60;;;30.10;80.80;;;;;;4993830;28;20029;-77
2022/07/13 11:47:58;;;;;;;2.50;1.98;;;28.90;80.30;;;;;;4994252;28;20062;-74
2022/07/13 11:50:37;;;;;;;2.92;1.63;;;28.70;79.70;;;;;;4995606;28;20022;-72
2022/07/13 11:53:02;;;;;;;2.90;2.00;;;28.80;79.20;;;;;;4994141;28;20112;-74
2022/07/13 11:55:29;;;;;;;2.55;1.77;;;29.80;78.60;;;;;;4993726;28;20110;-73
2022/07/13 11:57:58;;;;;;;2.78;1.77;;;28.70;77.20;;;;;;4993788;28;20514;-76
2022/07/13 12:00:24;;;;;;;2.95;1.55;;;28.80;76.40;;;;;;4997756;28;20031;-75
2022/07/13 12:02:51;;;;;;;6.18;2.05;;;28.80;74.90;;;;;;5009678;28;20068;-74
2022/07/13 12:05:28;;;;;;;2.08;1.75;;;29.40;75.40;;;;;;5009753;28;20018;-74
2022/07/13 12:08:03;;;;;;;2.63;1.10;;;30.30;76.50;;;;;;5007553;28;20018;-76
2022/07/13 12:10:30;;;;;;;2.45;1.27;;;29.30;73.10;;;;;;5008797;28;20116;-74
2022/07/13 12:12:56;;;;;;;1.90;1.70;;;29.20;74.10;;;;;;5009859;28;20354;-76
2022/07/13 12:15:22;;;;;;;1.95;1.75;;;28.90;73.60;;;;;;5010931;28;20026;-74
2022/07/13 12:17:48;;;;;;;1.95;1.27;;;28.80;74.30;;;;;;5007956;28;20026;-76
2022/07/13 12:20:19;;;;;;;2.35;1.00;;;28.80;74.50;;;;;;5008769;28;20025;-75
2022/07/13 12:22:50;;;;;;;1.10;1.00;;;28.70;72.00;;;;;;5009357;28;20109;-74
2022/07/13 12:25:40;;;;;;;1.85;1.23;;;28.50;72.70;;;;;;5010844;28;20025;-75
2022/07/13 12:28:10;;;;;;;1.30;0.90;;;28.50;70.20;;;;;;5004588;28;20038;-74
2022/07/13 12:30:54;;;;;;;1.77;0.80;;;28.50;70.60;;;;;;5008366;28;20547;-75
2022/07/13 12:33:20;;;;;;;;;;;29.10;69.60;;;;;;4990272;28;20025;-75
2022/07/13 12:35:45;;;;;;;1.83;0.90;;;28.40;69.50;;;;;;5008710;28;19906;-75
2022/07/13 12:38:14;;;;;;;2.03;1.30;;;29.00;68.30;;;;;;5010533;28;20037;-75
2022/07/13 12:40:52;;;;;;;1.55;0.68;;;28.50;68.20;;;;;;5011133;28;20045;-75
2022/07/13 12:43:29;;;;;;;1.85;0.90;;;28.70;68.90;;;;;;5009099;28;20018;-76
2022/07/13 12:45:58;;;;;;;1.75;1.15;;;28.70;68.70;;;;;;5007213;28;20084;-76
2022/07/13 12:48:27;;;;;;;1.92;1.23;;;28.70;66.00;;;;;;5006418;28;20054;-76
2022/07/13 12:51:02;;;;;;;2.40;1.05;;;28.60;67.70;;;;;;5008322;28;20018;-76
2022/07/13 12:53:49;;;;;;;2.35;1.13;;;28.70;67.20;;;;;;5010629;28;20437;-76